createdAt,value
2022-10-11T00:02:05.008Z,1.33
2022-10-11T00:04:31.281Z,1.63
2022-10-11T00:06:57.697Z,1.80
2022-10-11T00:09:23.932Z,1.42
2022-10-11T00:11:50.153Z,1.70
2022-10-11T00:14:16.422Z,1.30
2022-10-11T00:16:44.432Z,1.52
2022-10-11T00:19:11.292Z,1.88
2022-10-11T00:21:37.564Z,1.60
2022-10-11T00:24:03.977Z,2.65
2022-10-11T00:26:30.224Z,1.20
2022-10-11T00:28:56.485Z,1.52
2022-10-11T00:31:23.119Z,1.10
2022-10-11T00:33:49.374Z,1.20
2022-10-11T00:36:17.187Z,1.10
2022-10-11T00:38:44.013Z,1.50
2022-10-11T00:41:10.727Z,0.75
2022-10-11T00:43:37.067Z,1.00
2022-10-11T00:46:05.630Z,1.00
2022-10-11T00:48:43.336Z,1.05
2022-10-11T00:51:22.048Z,0.90
2022-10-11T00:53:48.939Z,0.88
2022-10-11T00:56:18.993Z,1.27
2022-10-11T00:58:45.458Z,1.10
2022-10-11T01:01:12.050Z,0.90
2022-10-11T01:03:39.039Z,1.40
2022-10-11T01:06:05.733Z,1.20
2022-10-11T01:08:32.472Z,1.10
2022-10-11T01:10:58.991Z,1.00
2022-10-11T01:13:28.058Z,1.10
2022-10-11T01:15:57.334Z,1.13
2022-10-11T01:18:30.762Z,1.10
2022-10-11T01:20:56.953Z,1.17
2022-10-11T01:23:35.412Z,1.33
2022-10-11T01:26:21.038Z,1.17
2022-10-11T01:29:06.110Z,0.90
2022-10-11T01:31:38.476Z,1.10
2022-10-11T01:34:11.601Z,1.00
2022-10-11T01:36:47.253Z,1.10
2022-10-11T01:39:16.579Z,1.00
2022-10-11T01:41:46.786Z,1.00
2022-10-11T01:44:13.455Z,1.20
2022-10-11T01:46:40.862Z,1.30
2022-10-11T01:49:07.305Z,4.35
2022-10-11T01:51:41.947Z,2.03
2022-10-11T01:54:10.440Z,1.95
2022-10-11T01:56:42.846Z,1.60
2022-10-11T01:59:09.187Z,1.23
2022-10-11T02:01:35.446Z,1.45
2022-10-11T02:04:01.754Z,1.23
2022-10-11T02:06:47.282Z,1.02
2022-10-11T02:09:13.473Z,1.10
2022-10-11T02:11:40.111Z,1.00
2022-10-11T02:14:10.836Z,1.20
2022-10-11T02:16:40.429Z,1.33
2022-10-11T02:19:08.030Z,1.30
2022-10-11T02:21:35.826Z,1.88
2022-10-11T02:24:05.606Z,1.42
2022-10-11T02:26:33.484Z,1.20
2022-10-11T02:29:04.327Z,1.17
2022-10-11T02:31:32.562Z,1.13
2022-10-11T02:34:01.938Z,1.40
2022-10-11T02:36:46.348Z,1.40
2022-10-11T02:39:16.769Z,1.05
2022-10-11T02:41:43.407Z,1.45
2022-10-11T02:44:12.871Z,0.88
2022-10-11T02:46:39.937Z,1.00
2022-10-11T02:49:07.292Z,1.20
2022-10-11T02:51:33.574Z,1.10
2022-10-11T02:53:59.927Z,0.90
2022-10-11T02:56:26.170Z,1.25
2022-10-11T02:58:52.398Z,1.48
2022-10-11T03:01:18.661Z,1.77
2022-10-11T03:03:44.934Z,1.65
2022-10-11T03:06:11.193Z,1.80
2022-10-11T03:08:37.407Z,1.85
2022-10-11T03:11:03.667Z,1.95
2022-10-11T03:13:29.902Z,1.77
2022-10-11T03:16:03.226Z,1.70
2022-10-11T03:18:30.650Z,1.30
2022-10-11T03:20:56.896Z,1.80
2022-10-11T03:23:23.114Z,2.17
2022-10-11T03:25:49.324Z,2.38
2022-10-11T03:28:15.615Z,2.10
2022-10-11T03:30:41.997Z,2.03
2022-10-11T03:33:08.219Z,1.50
2022-10-11T03:35:34.476Z,2.10
2022-10-11T03:38:00.700Z,2.05
2022-10-11T03:40:27.017Z,2.28
2022-10-11T03:42:56.191Z,1.95
2022-10-11T03:45:22.444Z,2.33
2022-10-11T03:47:48.869Z,2.33
2022-10-11T03:50:15.090Z,1.80
2022-10-11T03:52:41.305Z,2.20
2022-10-11T03:55:07.728Z,1.90
2022-10-11T03:57:34.306Z,2.10
2022-10-11T04:00:00.539Z,2.05
2022-10-11T04:02:26.831Z,2.60
2022-10-11T04:04:53.047Z,1.63
2022-10-11T04:07:19.372Z,2.30
2022-10-11T04:09:45.612Z,1.85
2022-10-11T04:12:11.836Z,2.00
2022-10-11T04:14:38.100Z,2.00
2022-10-11T04:17:04.324Z,2.45
2022-10-11T04:19:30.587Z,2.00
2022-10-11T04:21:56.811Z,2.53
2022-10-11T04:24:23.034Z,2.38
2022-10-11T04:26:49.399Z,2.28
2022-10-11T04:29:15.636Z,2.10
2022-10-11T04:31:41.898Z,2.22
2022-10-11T04:34:08.155Z,2.70
2022-10-11T04:36:34.377Z,3.05
2022-10-11T04:39:01.590Z,3.08
2022-10-11T04:41:29.276Z,2.92
2022-10-11T04:43:55.876Z,2.72
2022-10-11T04:46:22.103Z,2.90
2022-10-11T04:48:48.318Z,3.30
2022-10-11T04:51:14.608Z,2.92
2022-10-11T04:53:40.848Z,3.20
2022-10-11T04:56:10.795Z,3.22
2022-10-11T04:58:38.120Z,2.63
2022-10-11T05:01:04.336Z,2.58
2022-10-11T05:03:30.543Z,2.95
2022-10-11T05:05:56.784Z,3.30
2022-10-11T05:08:24.479Z,3.65
2022-10-11T05:10:57.872Z,3.17
2022-10-11T05:13:24.394Z,2.67
2022-10-11T05:15:50.688Z,2.75
2022-10-11T05:18:17.252Z,3.05
2022-10-11T05:20:43.545Z,2.60
2022-10-11T05:23:09.861Z,2.58
2022-10-11T05:25:36.401Z,2.65
2022-10-11T05:28:02.663Z,2.60
2022-10-11T05:30:28.863Z,2.83
2022-10-11T05:32:55.094Z,2.53
2022-10-11T05:35:21.329Z,2.30
2022-10-11T05:37:47.651Z,3.13
2022-10-11T05:40:13.955Z,2.63
2022-10-11T05:42:40.299Z,2.50
2022-10-11T05:45:07.050Z,3.15
2022-10-11T05:47:33.696Z,2.20
2022-10-11T05:49:59.920Z,2.92
2022-10-11T05:52:26.190Z,2.70
2022-10-11T05:54:52.462Z,5.03
2022-10-11T05:57:18.734Z,11.80
2022-10-11T05:59:44.955Z,5.20
2022-10-11T06:02:12.417Z,6.07
2022-10-11T06:04:39.150Z,5.18
2022-10-11T06:07:05.600Z,3.97
2022-10-11T06:09:31.878Z,3.38
2022-10-11T06:11:58.111Z,3.35
2022-10-11T06:14:24.338Z,3.47
2022-10-11T06:16:50.669Z,2.78
2022-10-11T06:19:16.906Z,3.83
2022-10-11T06:21:43.144Z,7.13
2022-10-11T06:24:09.564Z,6.65
2022-10-11T06:26:35.822Z,6.57
2022-10-11T06:29:02.259Z,6.25
2022-10-11T06:31:28.520Z,5.28
2022-10-11T06:33:54.795Z,4.40
2022-10-11T06:36:21.082Z,4.47
2022-10-11T06:38:47.404Z,5.85
2022-10-11T06:41:18.360Z,4.75
2022-10-11T06:46:10.940Z,3.20
2022-10-11T06:48:41.145Z,3.15
2022-10-11T06:51:07.404Z,3.20
2022-10-11T06:53:33.615Z,7.07
2022-10-11T06:56:07.610Z,4.38
2022-10-11T06:58:34.099Z,4.22
2022-10-11T07:01:04.754Z,4.28
2022-10-11T07:03:31.175Z,4.25
2022-10-11T07:06:05.795Z,4.32
2022-10-11T07:08:32.511Z,5.00
2022-10-11T07:11:24.944Z,7.38
2022-10-11T07:13:54.203Z,5.05
2022-10-11T07:16:21.171Z,5.68
2022-10-11T07:18:47.894Z,6.28
2022-10-11T07:21:15.115Z,8.98
2022-10-11T07:23:42.195Z,7.03
2022-10-11T07:26:09.239Z,6.75
2022-10-11T07:28:35.905Z,6.20
2022-10-11T07:31:06.492Z,5.40
2022-10-11T07:33:32.744Z,4.68
2022-10-11T07:35:59.006Z,4.72
2022-10-11T07:38:25.585Z,5.25
2022-10-11T07:40:52.058Z,5.03
2022-10-11T07:43:18.414Z,4.35
2022-10-11T07:45:51.141Z,4.97
2022-10-11T07:48:17.359Z,4.78
2022-10-11T07:50:43.588Z,4.65
2022-10-11T07:53:09.916Z,5.28
2022-10-11T07:55:40.110Z,4.93
2022-10-11T07:58:10.304Z,5.17
2022-10-11T08:00:36.547Z,4.27
2022-10-11T08:03:03.768Z,4.57
2022-10-11T08:05:30.096Z,4.68
2022-10-11T08:07:56.476Z,4.90
2022-10-11T08:10:22.853Z,4.80
2022-10-11T08:12:49.147Z,5.53
2022-10-11T08:15:15.721Z,5.53
2022-10-11T08:17:41.982Z,5.65
2022-10-11T08:20:08.410Z,5.25
2022-10-11T08:22:34.678Z,5.20
2022-10-11T08:25:00.916Z,5.60
2022-10-11T08:27:27.228Z,4.97
2022-10-11T08:29:53.465Z,5.25
2022-10-11T08:32:19.675Z,5.15
2022-10-11T08:34:46.023Z,4.97
2022-10-11T08:37:12.258Z,4.35
2022-10-11T08:39:38.483Z,4.50
2022-10-11T08:42:12.197Z,4.80
2022-10-11T08:45:08.973Z,3.85
2022-10-11T08:47:31.910Z,4.10
2022-10-11T08:49:58.820Z,3.28
2022-10-11T08:52:30.890Z,2.90
2022-10-11T08:55:01.237Z,2.50
2022-10-11T08:57:28.668Z,2.75
2022-10-11T08:59:59.690Z,2.38
2022-10-11T09:02:49.149Z,2.35
2022-10-11T09:05:18.651Z,2.22
2022-10-11T09:07:52.731Z,2.50
2022-10-11T09:10:21.935Z,2.00
2022-10-11T09:13:05.807Z,1.70
2022-10-11T09:15:44.389Z,1.90
2022-10-11T09:18:16.809Z,2.08
2022-10-11T09:20:48.393Z,1.90
2022-10-11T09:23:32.032Z,1.88
2022-10-11T09:26:14.415Z,1.63
2022-10-11T09:28:40.718Z,1.80
2022-10-11T09:31:09.312Z,1.60
2022-10-11T09:33:38.684Z,1.40
2022-10-11T09:36:18.834Z,1.73
2022-10-11T09:38:48.384Z,1.70
2022-10-11T09:41:14.577Z,1.77
2022-10-11T09:43:40.896Z,1.58
2022-10-11T09:46:17.337Z,1.58
2022-10-11T09:48:44.647Z,1.80
2022-10-11T09:51:20.163Z,1.25
2022-10-11T09:53:57.863Z,1.23
2022-10-11T09:56:25.028Z,1.80
2022-10-11T09:59:06.567Z,1.60
2022-10-11T10:01:33.867Z,1.52
2022-10-11T10:04:05.779Z,1.33
2022-10-11T10:06:32.030Z,1.90
2022-10-11T10:09:27.608Z,1.45
2022-10-11T10:11:54.975Z,1.70
2022-10-11T10:14:26.944Z,1.80
2022-10-11T10:17:01.083Z,1.60
2022-10-11T10:19:27.366Z,2.38
2022-10-11T10:21:54.491Z,1.90
2022-10-11T10:24:24.352Z,1.85
2022-10-11T10:27:09.166Z,2.20
2022-10-11T10:29:35.865Z,2.00
2022-10-11T10:32:14.990Z,2.30
2022-10-11T10:34:52.679Z,1.90
2022-10-11T10:37:26.615Z,2.20
2022-10-11T10:40:02.337Z,1.90
2022-10-11T10:42:28.706Z,1.95
2022-10-11T10:44:56.880Z,1.50
2022-10-11T10:47:25.934Z,1.63
2022-10-11T10:49:57.014Z,1.52
2022-10-11T10:52:45.931Z,1.92
2022-10-11T10:55:21.071Z,1.90
2022-10-11T10:58:04.048Z,1.40
2022-10-11T11:00:34.260Z,1.30
2022-10-11T11:03:06.635Z,1.38
2022-10-11T11:05:40.955Z,1.75
2022-10-11T11:08:12.661Z,1.90
2022-10-11T11:10:42.422Z,1.50
2022-10-11T11:13:28.537Z,1.60
2022-10-11T11:15:57.580Z,2.15
2022-10-11T11:18:26.868Z,1.35
2022-10-11T11:21:12.649Z,1.20
2022-10-11T11:23:52.978Z,1.40
2022-10-11T11:26:28.399Z,1.20
2022-10-11T11:28:57.659Z,1.15
2022-10-11T11:31:26.848Z,1.33
2022-10-11T11:34:04.204Z,1.67
2022-10-11T11:36:30.396Z,1.48
2022-10-11T11:39:01.490Z,1.45
2022-10-11T11:41:30.312Z,1.52
2022-10-11T11:44:04.689Z,1.45
2022-10-11T11:46:33.816Z,1.60
2022-10-11T11:49:02.668Z,1.40
2022-10-11T11:51:38.330Z,1.52
2022-10-11T11:54:06.146Z,1.27
2022-10-11T11:56:44.464Z,1.17
2022-10-11T11:59:29.435Z,1.40
2022-10-11T12:01:56.079Z,1.20
2022-10-11T12:04:25.950Z,1.60
2022-10-11T12:07:16.744Z,1.13
2022-10-11T12:09:45.398Z,1.77
2022-10-11T12:12:30.457Z,1.63
2022-10-11T12:15:15.472Z,1.52
2022-10-11T12:17:57.199Z,1.50
2022-10-11T12:20:25.362Z,1.80
2022-10-11T12:22:54.060Z,1.80
2022-10-11T12:25:23.788Z,1.45
2022-10-11T12:27:51.493Z,1.40
2022-10-11T12:30:37.044Z,1.80
2022-10-11T12:33:06.092Z,1.20
2022-10-11T12:35:32.365Z,1.20
2022-10-11T12:38:14.237Z,1.70
2022-10-11T12:40:45.796Z,1.05
2022-10-11T12:43:23.821Z,1.58
2022-10-11T12:45:50.247Z,1.67
2022-10-11T12:48:40.910Z,1.75
2022-10-11T12:51:16.943Z,1.35
2022-10-11T12:53:43.136Z,1.30
2022-10-11T12:56:12.548Z,1.38
2022-10-11T12:58:41.535Z,1.40
2022-10-11T13:01:07.897Z,1.40
2022-10-11T13:03:37.427Z,1.30
2022-10-11T13:06:18.752Z,1.45
2022-10-11T13:08:47.307Z,1.30
2022-10-11T13:11:18.366Z,1.60
2022-10-11T13:13:48.134Z,1.35
2022-10-11T13:16:16.188Z,1.33
2022-10-11T13:18:47.144Z,1.33
2022-10-11T13:21:26.805Z,1.50
2022-10-11T13:23:58.996Z,1.88
2022-10-11T13:26:26.328Z,1.42
2022-10-11T13:28:52.698Z,1.50
2022-10-11T13:31:18.998Z,1.40
2022-10-11T13:33:45.759Z,1.58
2022-10-11T13:36:20.522Z,1.60
2022-10-11T13:38:52.850Z,1.70
2022-10-11T13:41:19.655Z,1.35
2022-10-11T13:43:45.987Z,1.17
2022-10-11T13:46:18.276Z,1.45
2022-10-11T13:48:44.707Z,1.30
2022-10-11T13:51:17.569Z,1.40
2022-10-11T13:53:57.333Z,1.70
2022-10-11T13:56:23.714Z,1.37
2022-10-11T13:58:52.174Z,1.48
2022-10-11T14:01:26.926Z,1.38
2022-10-11T14:03:58.896Z,1.35
2022-10-11T14:06:37.981Z,1.17
2022-10-11T14:09:04.675Z,1.30
2022-10-11T14:11:38.833Z,1.50
2022-10-11T14:14:23.896Z,1.58
2022-10-11T14:17:05.191Z,1.10
2022-10-11T14:19:31.432Z,1.38
2022-10-11T14:21:57.771Z,1.15
2022-10-11T14:24:24.038Z,1.27
2022-10-11T14:26:54.415Z,1.50
2022-10-11T14:29:34.532Z,1.85
2022-10-11T14:32:29.195Z,1.52
2022-10-11T14:34:55.739Z,1.83
2022-10-11T14:37:22.412Z,1.80
2022-10-11T14:39:48.749Z,1.73
2022-10-11T14:42:15.133Z,1.75
2022-10-11T14:44:41.455Z,1.60
2022-10-11T14:47:08.606Z,1.73
2022-10-11T14:49:36.393Z,1.48
2022-10-11T14:52:03.655Z,1.85
2022-10-11T14:54:30.733Z,1.65
2022-10-11T14:56:57.887Z,1.30
2022-10-11T14:59:25.384Z,1.17
2022-10-11T15:01:53.595Z,1.60
2022-10-11T15:04:24.325Z,1.25
2022-10-11T15:09:17.246Z,1.23
2022-10-11T15:11:43.841Z,1.60
2022-10-11T15:14:10.095Z,1.73
2022-10-11T15:16:37.563Z,1.25
2022-10-11T15:19:03.836Z,1.20
2022-10-11T15:21:30.209Z,1.17
2022-10-11T15:23:56.515Z,1.40
2022-10-11T15:26:26.948Z,1.30
2022-10-11T15:28:54.077Z,1.30
2022-10-11T15:31:20.957Z,1.45
2022-10-11T15:33:47.352Z,1.25
2022-10-11T15:36:14.827Z,1.50
2022-10-11T15:38:41.395Z,1.55
2022-10-11T15:41:09.502Z,1.83
2022-10-11T15:43:35.950Z,1.33
2022-10-11T15:46:02.820Z,1.35
2022-10-11T15:48:29.404Z,1.70
2022-10-11T15:50:55.819Z,1.80
2022-10-11T15:53:23.519Z,1.50
2022-10-11T15:55:51.204Z,2.20
2022-10-11T15:58:19.286Z,1.95
2022-10-11T16:00:46.499Z,2.00
2022-10-11T16:03:13.568Z,1.67
2022-10-11T16:05:39.909Z,1.73
2022-10-11T16:08:06.507Z,2.10
2022-10-11T16:10:32.742Z,1.80
2022-10-11T16:12:59.043Z,1.73
2022-10-11T16:15:25.489Z,1.95
2022-10-11T16:17:51.804Z,1.42
2022-10-11T16:20:22.083Z,2.33
2022-10-11T16:22:49.460Z,2.33
2022-10-11T16:25:15.734Z,2.10
2022-10-11T16:27:42.397Z,2.65
2022-10-11T16:30:11.732Z,1.92
2022-10-11T16:32:38.463Z,1.90
2022-10-11T16:35:05.561Z,2.13
2022-10-11T16:37:32.468Z,1.92
2022-10-11T16:39:58.672Z,1.77
2022-10-11T16:42:25.406Z,2.08
2022-10-11T16:44:51.723Z,1.77
2022-10-11T16:47:18.635Z,2.13
2022-10-11T16:49:45.295Z,1.77
2022-10-11T16:52:13.981Z,2.03
2022-10-11T16:54:44.296Z,2.50
2022-10-11T16:57:11.575Z,2.20
2022-10-11T16:59:37.865Z,2.15
2022-10-11T17:02:05.029Z,2.38
2022-10-11T17:04:34.299Z,2.20
2022-10-11T17:07:00.569Z,2.35
2022-10-11T17:09:26.811Z,1.88
2022-10-11T17:11:53.051Z,1.83
2022-10-11T17:14:19.942Z,2.17
2022-10-11T17:16:46.326Z,2.67
2022-10-11T17:19:13.152Z,3.20
2022-10-11T17:21:39.381Z,2.85
2022-10-11T17:24:05.773Z,3.85
2022-10-11T17:26:32.598Z,3.42
2022-10-11T17:29:00.323Z,4.22
2022-10-11T17:31:27.536Z,4.60
2022-10-11T17:33:54.759Z,5.50
2022-10-11T17:36:20.960Z,4.63
2022-10-11T17:38:47.595Z,4.90
2022-10-11T17:41:14.065Z,4.72
2022-10-11T17:43:40.579Z,4.32
2022-10-11T17:46:08.654Z,3.80
2022-10-11T17:48:36.603Z,3.70
2022-10-11T17:51:09.964Z,3.17
2022-10-11T17:53:36.728Z,2.92
2022-10-11T17:56:07.071Z,2.40
2022-10-11T17:58:33.829Z,2.72
2022-10-11T18:01:00.971Z,2.90
2022-10-11T18:03:27.261Z,2.83
2022-10-11T18:05:53.467Z,2.63
2022-10-11T18:08:19.704Z,2.78
2022-10-11T18:10:47.691Z,2.90
2022-10-11T18:13:15.395Z,3.03
2022-10-11T18:15:41.761Z,3.20
2022-10-11T18:18:08.025Z,4.38
2022-10-11T18:20:34.313Z,4.30
2022-10-11T18:23:00.814Z,4.18
2022-10-11T18:25:27.056Z,3.97
2022-10-11T18:27:53.299Z,3.83
2022-10-11T18:30:19.685Z,4.28
2022-10-11T18:32:45.938Z,4.28
2022-10-11T18:35:12.147Z,3.85
2022-10-11T18:37:38.389Z,3.83
2022-10-11T18:40:04.798Z,3.40
2022-10-11T18:42:31.090Z,3.55
2022-10-11T18:44:57.859Z,3.97
2022-10-11T18:47:24.117Z,4.68
2022-10-11T18:49:50.345Z,5.22
2022-10-11T18:52:16.832Z,5.68
2022-10-11T18:54:43.640Z,6.25
2022-10-11T18:57:09.910Z,6.95
2022-10-11T18:59:36.207Z,8.73
2022-10-11T19:02:04.084Z,8.05
2022-10-11T19:04:34.011Z,7.55
2022-10-11T19:07:00.250Z,7.93
2022-10-11T19:09:28.108Z,8.23
2022-10-11T19:11:55.385Z,7.45
2022-10-11T19:14:22.929Z,8.65
2022-10-11T19:16:51.233Z,8.02
2022-10-11T19:19:25.555Z,7.68
2022-10-11T19:21:52.305Z,7.65
2022-10-11T19:24:19.536Z,7.65
2022-10-11T19:26:46.261Z,7.53
2022-10-11T19:29:16.610Z,7.50
2022-10-11T19:31:44.538Z,7.05
2022-10-11T19:34:11.805Z,6.05
2022-10-11T19:36:38.753Z,6.45
2022-10-11T19:39:05.664Z,5.80
2022-10-11T19:41:32.022Z,6.18
2022-10-11T19:43:58.358Z,7.05
2022-10-11T19:46:49.809Z,6.80
2022-10-11T19:49:13.661Z,5.60
2022-10-11T19:51:39.905Z,5.40
2022-10-11T19:54:07.863Z,6.13
2022-10-11T19:56:34.423Z,6.00
2022-10-11T19:59:01.137Z,6.15
2022-10-11T20:01:29.261Z,5.63
2022-10-11T20:03:59.790Z,7.00
2022-10-11T20:06:27.584Z,6.03
2022-10-11T20:09:16.693Z,7.00
2022-10-11T20:11:40.664Z,6.45
2022-10-11T20:14:07.004Z,6.15
2022-10-11T20:16:33.227Z,5.75
2022-10-11T20:19:00.111Z,5.72
2022-10-11T20:21:27.707Z,6.00
2022-10-11T20:23:56.888Z,6.05
2022-10-11T20:26:24.193Z,5.47
2022-10-11T20:28:55.830Z,5.10
2022-10-11T20:31:25.777Z,5.70
2022-10-11T20:33:53.952Z,6.13
2022-10-11T20:36:21.816Z,5.65
2022-10-11T20:38:49.131Z,5.72
2022-10-11T20:41:19.759Z,5.22
2022-10-11T20:43:46.649Z,4.70
2022-10-11T20:46:13.954Z,6.22
2022-10-11T20:48:40.585Z,5.03
2022-10-11T20:51:08.358Z,4.72
2022-10-11T20:53:35.548Z,3.42
2022-10-11T20:56:01.854Z,4.10
2022-10-11T20:58:28.179Z,4.00
2022-10-11T21:00:54.406Z,3.58
2022-10-11T21:03:20.849Z,3.42
2022-10-11T21:05:47.082Z,4.30
2022-10-11T21:08:13.371Z,4.13
2022-10-11T21:10:39.775Z,4.35
2022-10-11T21:13:06.218Z,4.85
2022-10-11T21:15:32.465Z,4.35
2022-10-11T21:17:58.776Z,4.25
2022-10-11T21:20:25.299Z,3.83
2022-10-11T21:22:51.565Z,3.05
2022-10-11T21:25:17.808Z,2.53
2022-10-11T21:27:44.094Z,2.40
2022-10-11T21:30:10.380Z,2.72
2022-10-11T21:32:37.090Z,3.42
2022-10-11T21:35:03.846Z,3.20
2022-10-11T21:37:30.076Z,2.97
2022-10-11T21:39:56.320Z,2.75
2022-10-11T21:42:27.156Z,2.60
2022-10-11T21:44:55.576Z,2.63
2022-10-11T21:47:21.828Z,2.53
2022-10-11T21:49:48.048Z,2.40
2022-10-11T21:52:14.304Z,2.10
2022-10-11T21:54:40.523Z,2.45
2022-10-11T21:57:06.778Z,2.72
2022-10-11T21:59:33.043Z,2.60
2022-10-11T22:02:01.917Z,2.90
2022-10-11T22:04:28.504Z,3.10
2022-10-11T22:06:54.727Z,2.60
2022-10-11T22:09:20.984Z,2.30
2022-10-11T22:11:47.224Z,2.35
2022-10-11T22:14:13.460Z,2.38
2022-10-11T22:16:39.677Z,2.60
2022-10-11T22:19:05.919Z,2.70
2022-10-11T22:21:32.157Z,2.40
2022-10-11T22:23:58.495Z,2.20
2022-10-11T22:26:25.902Z,2.72
2022-10-11T22:28:53.249Z,2.53
2022-10-11T22:31:20.204Z,2.83
2022-10-11T22:33:46.614Z,2.70
2022-10-11T22:36:13.155Z,2.47
2022-10-11T22:38:40.893Z,2.63
2022-10-11T22:41:07.524Z,2.55
2022-10-11T22:43:33.761Z,2.42
2022-10-11T22:45:59.995Z,2.22
2022-10-11T22:48:26.408Z,2.33
2022-10-11T22:50:52.719Z,2.35
2022-10-11T22:53:18.984Z,2.55
2022-10-11T22:55:45.359Z,2.20
2022-10-11T22:58:11.624Z,2.45
2022-10-11T23:00:37.884Z,2.50
2022-10-11T23:03:04.278Z,2.70
2022-10-11T23:05:30.515Z,2.85
2022-10-11T23:07:56.731Z,2.30
2022-10-11T23:10:23.009Z,2.90
2022-10-11T23:12:49.244Z,2.72
2022-10-11T23:15:15.521Z,2.60
2022-10-11T23:17:42.180Z,2.90
2022-10-11T23:20:08.774Z,2.90
2022-10-11T23:22:35.041Z,2.75
2022-10-11T23:25:01.288Z,2.25
2022-10-11T23:27:28.674Z,2.65
2022-10-11T23:29:54.896Z,2.00
2022-10-11T23:32:21.245Z,2.60
2022-10-11T23:34:47.466Z,2.80
2022-10-11T23:37:13.727Z,2.45
2022-10-11T23:39:40.172Z,2.50
2022-10-11T23:42:06.382Z,2.40
2022-10-11T23:44:32.650Z,2.42
2022-10-11T23:46:58.869Z,2.05
2022-10-11T23:49:25.099Z,2.40
2022-10-11T23:51:51.331Z,2.50
2022-10-11T23:54:17.574Z,2.22
2022-10-11T23:56:43.839Z,2.38
2022-10-11T23:59:10.107Z,2.10
